Time;durP1;ratioP1;P1;durP2;ratioP2;P2;SDS_P1;SDS_P2;PMS_P1;PMS_P2;Temp;Humidity;BMP_temperature;BMP_pressure;BME280_temperature;BME280_humidity;BME280_pressure;Samples;Min_cycle;Max_cycle;Signal;HPM_P1;HPM_P2
2023/01/29 00:00:21;;;;;;;90.13;47.58;;;;;;;;;;1043884;28;20061;-78
2023/01/29 00:00:51;;;;;;;76.10;40.55;;;;;;;;;;1043938;28;20032;-78
2023/01/29 00:01:22;;;;;;;88.97;42.22;;;;;;;;;;1043663;28;20025;-79
2023/01/29 00:01:53;;;;;;;88.43;42.25;;;;;;;;;;1043621;28;20451;-78
2023/01/29 00:02:23;;;;;;;85.53;42.08;;;;;;;;;;1043768;28;20476;-79
2023/01/29 00:02:54;;;;;;;93.55;45.53;;;;;;;;;;1043829;28;20029;-79
2023/01/29 00:03:24;;;;;;;86.20;44.65;;;;;;;;;;1048035;28;20032;-79
2023/01/29 00:03:55;;;;;;;82.13;42.45;;;;;;;;;;1048274;28;20028;-78
2023/01/29 00:04:26;;;;;;;91.47;44.00;;;;;;;;;;1048317;28;20017;-78
2023/01/29 00:04:58;;;;;;;79.95;43.08;;;;;;;;;;1048472;28;20024;-78
2023/01/29 00:05:29;;;;;;;97.60;46.55;;;;;;;;;;1043595;28;20029;-78
2023/01/29 00:06:03;;;;;;;87.68;43.38;;;;;;;;;;1043977;28;20025;-78
2023/01/29 00:06:34;;;;;;;81.95;39.65;;;;;;;;;;1043172;28;20510;-79
2023/01/29 00:07:04;;;;;;;85.70;42.88;;;;;;;;;;1043839;28;20078;-78
2023/01/29 00:07:35;;;;;;;76.22;40.17;;;;;;;;;;1043826;28;20025;-78
2023/01/29 00:08:05;;;;;;;77.70;40.40;;;;;;;;;;1039270;28;20021;-78
2023/01/29 00:08:36;;;;;;;83.82;37.63;;;;;;;;;;1039764;28;20018;-78
2023/01/29 00:09:07;;;;;;;89.75;42.55;;;;;;;;;;1042892;28;20531;-78
2023/01/29 00:09:38;;;;;;;83.65;44.35;;;;;;;;;;1042964;28;20075;-78
2023/01/29 00:10:09;;;;;;;87.15;40.15;;;;;;;;;;1048379;28;20082;-78
2023/01/29 00:10:40;;;;;;;85.00;39.35;;;;;;;;;;1043865;28;20032;-78
2023/01/29 00:11:11;;;;;;;76.78;38.58;;;;;;;;;;1043811;28;20567;-78
2023/01/29 00:11:41;;;;;;;67.82;34.53;;;;;;;;;;1043997;28;20017;-78
2023/01/29 00:12:12;;;;;;;78.18;39.13;;;;;;;;;;1043978;28;20025;-78
2023/01/29 00:12:42;;;;;;;60.65;36.55;;;;;;;;;;1048218;28;20031;-78
2023/01/29 00:13:13;;;;;;;70.30;39.78;;;;;;;;;;1043823;28;20031;-78
2023/01/29 00:13:44;;;;;;;64.50;33.95;;;;;;;;;;1043882;28;20206;-78
2023/01/29 00:14:14;;;;;;;70.93;34.15;;;;;;;;;;1043819;28;20017;-78
2023/01/29 00:14:45;;;;;;;70.82;37.78;;;;;;;;;;1043924;28;20088;-79
2023/01/29 00:15:15;;;;;;;89.43;35.05;;;;;;;;;;1044571;28;20021;-78
2023/01/29 00:15:53;;;;;;;64.68;33.72;;;;;;;;;;1043752;28;20021;-78
2023/01/29 00:16:24;;;;;;;65.55;36.60;;;;;;;;;;1043079;28;20017;-78
2023/01/29 00:16:54;;;;;;;82.07;39.00;;;;;;;;;;1043661;28;20021;-78
2023/01/29 00:17:26;;;;;;;84.70;40.60;;;;;;;;;;1043886;28;20111;-78
2023/01/29 00:17:56;;;;;;;75.72;38.40;;;;;;;;;;1042621;28;20025;-79
2023/01/29 00:18:27;;;;;;;71.05;37.83;;;;;;;;;;1040347;28;20036;-78
2023/01/29 00:18:59;;;;;;;73.72;37.67;;;;;;;;;;1043972;28;20040;-78
2023/01/29 00:19:30;;;;;;;72.72;36.78;;;;;;;;;;1039863;28;20036;-78
2023/01/29 00:20:00;;;;;;;80.57;35.58;;;;;;;;;;1043955;28;20044;-79
2023/01/29 00:20:31;;;;;;;72.05;36.97;;;;;;;;;;1043732;28;20025;-78
2023/01/29 00:21:01;;;;;;;73.45;34.85;;;;;;;;;;1043825;28;20389;-78
2023/01/29 00:21:32;;;;;;;74.28;33.75;;;;;;;;;;1041665;28;20481;-78
2023/01/29 00:22:03;;;;;;;79.18;36.03;;;;;;;;;;1043731;28;20103;-78
2023/01/29 00:22:33;;;;;;;80.90;33.80;;;;;;;;;;1043594;28;20555;-78
2023/01/29 00:23:04;;;;;;;68.53;35.78;;;;;;;;;;1043845;28;20035;-78
2023/01/29 00:23:34;;;;;;;65.20;33.45;;;;;;;;;;1039565;28;20029;-79
2023/01/29 00:24:05;;;;;;;77.13;32.15;;;;;;;;;;1038100;28;20084;-78
2023/01/29 00:24:35;;;;;;;67.32;35.80;;;;;;;;;;1042417;28;20091;-78
2023/01/29 00:25:06;;;;;;;70.75;36.90;;;;;;;;;;1039650;28;20075;-78
2023/01/29 00:25:37;;;;;;;72.57;34.83;;;;;;;;;;1042230;28;20126;-78
2023/01/29 00:26:07;;;;;;;69.25;33.78;;;;;;;;;;1042658;28;20031;-78
2023/01/29 00:26:38;;;;;;;71.95;36.45;;;;;;;;;;1043950;28;20025;-78
2023/01/29 00:27:09;;;;;;;66.55;30.30;;;;;;;;;;1043527;28;20163;-78
2023/01/29 00:27:40;;;;;;;69.82;31.13;;;;;;;;;;1043610;28;20202;-79
2023/01/29 00:28:11;;;;;;;76.35;32.75;;;;;;;;;;1043974;28;20100;-79
2023/01/29 00:28:42;;;;;;;71.57;33.13;;;;;;;;;;1043505;28;20091;-79
2023/01/29 00:29:13;;;;;;;67.82;33.65;;;;;;;;;;1043635;28;20075;-79
2023/01/29 00:30:08;;;;;;;75.43;32.30;;;;;;;;;;1043780;28;20496;-78
2023/01/29 00:30:35;;;;;;;72.82;36.08;;;;;;;;;;1043255;28;20029;-78
2023/01/29 00:31:09;;;;;;;71.05;35.00;;;;;;;;;;1042428;28;20086;-78
2023/01/29 00:31:42;;;;;;;69.20;35.95;;;;;;;;;;1042711;28;20027;-79
2023/01/29 00:32:13;;;;;;;84.22;36.97;;;;;;;;;;1043639;28;20021;-79
2023/01/29 00:32:44;;;;;;;78.57;35.75;;;;;;;;;;1043364;28;20021;-79
2023/01/29 00:33:14;;;;;;;71.80;32.92;;;;;;;;;;1043582;28;20024;-79
2023/01/29 00:33:45;;;;;;;65.25;34.35;;;;;;;;;;1038543;28;20017;-79
2023/01/29 00:34:16;;;;;;;77.88;36.17;;;;;;;;;;1039748;28;20025;-79
2023/01/29 00:34:46;;;;;;;86.72;36.28;;;;;;;;;;1043462;28;20013;-79
2023/01/29 00:35:17;;;;;;;72.50;36.22;;;;;;;;;;1044019;28;20087;-79
2023/01/29 00:35:47;;;;;;;62.13;31.77;;;;;;;;;;1048119;28;20557;-79
2023/01/29 00:36:19;;;;;;;63.03;32.95;;;;;;;;;;1048011;28;20495;-79
2023/01/29 00:36:49;;;;;;;67.47;35.38;;;;;;;;;;1047907;28;20016;-79
2023/01/29 00:37:20;;;;;;;74.90;34.35;;;;;;;;;;1047612;28;20086;-79
2023/01/29 00:37:50;;;;;;;63.28;34.03;;;;;;;;;;1043443;28;20181;-79
2023/01/29 00:38:21;;;;;;;77.32;35.38;;;;;;;;;;1043628;28;20021;-78
2023/01/29 00:38:57;;;;;;;70.60;34.45;;;;;;;;;;1043434;28;20025;-78
2023/01/29 00:39:37;;;;;;;63.78;33.90;;;;;;;;;;1044530;28;20417;-78
2023/01/29 00:40:08;;;;;;;69.15;36.95;;;;;;;;;;1043514;28;20025;-78
2023/01/29 00:44:56;;;;;;;64.50;34.45;;;;;;;;;;1055215;22;20040;-79
2023/01/29 00:45:27;;;;;;;54.40;29.15;;;;;;;;;;1049282;28;20044;-78
2023/01/29 00:45:57;;;;;;;72.18;32.25;;;;;;;;;;1048182;28;20028;-78
2023/01/29 00:46:28;;;;;;;66.05;31.30;;;;;;;;;;1048079;28;20024;-78
2023/01/29 00:46:59;;;;;;;62.15;32.30;;;;;;;;;;1043820;28;20041;-78
2023/01/29 00:47:29;;;;;;;72.97;30.42;;;;;;;;;;1043765;28;20473;-78
2023/01/29 00:48:00;;;;;;;72.35;33.85;;;;;;;;;;1043679;28;20115;-78
2023/01/29 00:48:30;;;;;;;70.20;32.65;;;;;;;;;;1043019;28;20029;-78
2023/01/29 00:49:01;;;;;;;71.35;34.05;;;;;;;;;;1043679;28;20017;-78
2023/01/29 00:49:31;;;;;;;71.93;34.33;;;;;;;;;;1043627;28;20025;-78
2023/01/29 00:50:03;;;;;;;69.65;29.80;;;;;;;;;;1043689;28;20027;-78
2023/01/29 00:50:34;;;;;;;70.07;32.38;;;;;;;;;;1044441;28;20500;-78
2023/01/29 00:51:05;;;;;;;62.10;31.15;;;;;;;;;;1039643;28;20040;-78
2023/01/29 00:51:36;;;;;;;57.45;30.75;;;;;;;;;;1043724;28;20029;-78
2023/01/29 00:52:25;;;;;;;59.65;31.05;;;;;;;;;;1043471;28;20029;-78
2023/01/29 00:52:55;;;;;;;51.80;29.58;;;;;;;;;;1042975;28;20489;-78
2023/01/29 00:53:26;;;;;;;70.80;31.80;;;;;;;;;;1043562;28;20105;-78
2023/01/29 00:54:01;;;;;;;67.03;30.73;;;;;;;;;;1043642;28;20056;-78
2023/01/29 00:54:31;;;;;;;66.30;31.45;;;;;;;;;;1043372;28;20396;-78
2023/01/29 00:55:03;;;;;;;65.88;30.55;;;;;;;;;;1043692;28;20017;-78
2023/01/29 00:55:34;;;;;;;68.28;31.83;;;;;;;;;;1044343;28;20024;-78
2023/01/29 00:56:05;;;;;;;66.63;33.08;;;;;;;;;;1039445;28;20061;-78
2023/01/29 00:56:36;;;;;;;57.58;28.55;;;;;;;;;;1039770;28;20116;-79
2023/01/29 00:57:06;;;;;;;60.92;29.77;;;;;;;;;;1043555;28;20024;-79
2023/01/29 00:57:37;;;;;;;50.67;28.70;;;;;;;;;;1043525;28;20049;-78
2023/01/29 00:58:07;;;;;;;70.85;28.73;;;;;;;;;;1043703;28;20407;-78
2023/01/29 00:58:38;;;;;;;60.45;30.45;;;;;;;;;;1043539;28;20112;-78
2023/01/29 00:59:08;;;;;;;70.82;32.30;;;;;;;;;;1043728;28;20021;-78
2023/01/29 00:59:39;;;;;;;68.57;32.25;;;;;;;;;;1043777;28;20033;-78
2023/01/29 01:00:11;;;;;;;59.08;29.17;;;;;;;;;;1043718;28;20028;-78
2023/01/29 01:00:42;;;;;;;61.83;31.30;;;;;;;;;;1048446;28;20056;-78
2023/01/29 01:01:12;;;;;;;65.82;29.95;;;;;;;;;;1043693;28;20032;-78
2023/01/29 01:03:21;;;;;;;63.42;30.50;;;;;;;;;;1044448;28;20481;-78
2023/01/29 01:03:51;;;;;;;63.65;28.75;;;;;;;;;;1046891;28;20021;-78
2023/01/29 01:04:22;;;;;;;59.75;29.33;;;;;;;;;;1047101;28;20066;-78
2023/01/29 01:04:52;;;;;;;55.50;30.65;;;;;;;;;;1047039;28;20107;-78
2023/01/29 01:05:23;;;;;;;65.55;29.98;;;;;;;;;;1048098;28;20025;-79
2023/01/29 01:06:07;;;;;;;66.38;31.33;;;;;;;;;;1047921;28;20020;-79
2023/01/29 01:06:38;;;;;;;70.82;30.65;;;;;;;;;;1044885;28;20021;-79
2023/01/29 01:07:08;;;;;;;54.53;30.77;;;;;;;;;;1040909;28;20017;-79
2023/01/29 01:07:40;;;;;;;63.00;31.55;;;;;;;;;;1041660;28;20048;-79
2023/01/29 01:10:37;;;;;;;54.17;28.95;;;;;;;;;;1046950;28;20103;-79
2023/01/29 01:11:07;;;;;;;69.68;31.13;;;;;;;;;;1047888;28;20021;-79
2023/01/29 01:11:38;;;;;;;58.15;30.90;;;;;;;;;;1043298;28;20473;-79
2023/01/29 01:12:08;;;;;;;71.05;31.27;;;;;;;;;;1043447;28;20032;-79
2023/01/29 01:12:39;;;;;;;69.45;34.42;;;;;;;;;;1043593;28;20139;-79
2023/01/29 01:13:09;;;;;;;72.53;33.22;;;;;;;;;;1043617;28;20021;-78
2023/01/29 01:13:40;;;;;;;76.25;34.28;;;;;;;;;;1043577;28;20025;-79
2023/01/29 01:14:11;;;;;;;60.05;33.05;;;;;;;;;;1043683;28;20630;-79
2023/01/29 01:14:42;;;;;;;60.63;32.30;;;;;;;;;;1043576;28;20032;-79
2023/01/29 01:15:13;;;;;;;66.95;32.08;;;;;;;;;;1039779;28;20490;-79
2023/01/29 01:15:43;;;;;;;75.45;32.40;;;;;;;;;;1043533;28;20025;-79
2023/01/29 01:16:15;;;;;;;80.55;35.05;;;;;;;;;;1043561;28;20028;-79
2023/01/29 01:16:46;;;;;;;83.32;32.63;;;;;;;;;;1043444;28;20028;-79
2023/01/29 01:17:17;;;;;;;79.95;35.63;;;;;;;;;;1043416;28;20362;-79
2023/01/29 01:17:50;;;;;;;96.72;36.58;;;;;;;;;;1043418;28;20108;-79
2023/01/29 01:18:21;;;;;;;77.28;35.08;;;;;;;;;;1043289;28;20021;-79
2023/01/29 01:18:51;;;;;;;71.60;33.47;;;;;;;;;;1043380;28;20489;-79
2023/01/29 01:19:22;;;;;;;82.03;34.58;;;;;;;;;;1043011;28;20115;-79
2023/01/29 01:19:52;;;;;;;80.43;34.80;;;;;;;;;;1047907;28;20430;-79
2023/01/29 01:20:23;;;;;;;79.82;35.50;;;;;;;;;;1043982;28;20056;-79
2023/01/29 01:20:57;;;;;;;80.50;37.53;;;;;;;;;;1044168;28;20017;-79
2023/01/29 01:21:28;;;;;;;92.57;38.83;;;;;;;;;;1044269;28;20576;-79
2023/01/29 01:21:58;;;;;;;79.85;38.45;;;;;;;;;;1044201;28;20032;-79
2023/01/29 01:22:30;;;;;;;92.45;40.38;;;;;;;;;;1044065;28;20025;-79
2023/01/29 01:23:01;;;;;;;91.07;40.45;;;;;;;;;;1043868;28;20017;-79
2023/01/29 01:23:32;;;;;;;88.47;39.75;;;;;;;;;;1044639;28;20515;-79
2023/01/29 01:24:04;;;;;;;90.00;38.28;;;;;;;;;;1048789;28;20396;-79
2023/01/29 01:24:35;;;;;;;82.43;38.35;;;;;;;;;;1044987;28;20021;-78
2023/01/29 01:25:05;;;;;;;89.78;40.30;;;;;;;;;;1044434;28;20112;-78
2023/01/29 01:25:36;;;;;;;104.35;41.95;;;;;;;;;;1045106;28;20029;-79
2023/01/29 01:26:08;;;;;;;94.78;40.92;;;;;;;;;;1044317;28;20461;-79
2023/01/29 01:26:38;;;;;;;95.20;40.63;;;;;;;;;;1044044;28;20039;-79
2023/01/29 01:27:09;;;;;;;99.28;45.35;;;;;;;;;;1044628;28;20657;-79
2023/01/29 01:27:40;;;;;;;96.40;42.28;;;;;;;;;;1048642;28;20020;-79
2023/01/29 01:28:10;;;;;;;99.10;44.35;;;;;;;;;;1043961;28;20120;-79
2023/01/29 01:28:41;;;;;;;97.32;42.80;;;;;;;;;;1044163;28;20017;-79
2023/01/29 01:29:11;;;;;;;89.00;41.65;;;;;;;;;;1044244;28;20455;-79
2023/01/29 01:29:42;;;;;;;94.53;43.20;;;;;;;;;;1044093;28;20032;-79
2023/01/29 01:30:14;;;;;;;104.90;43.58;;;;;;;;;;1044327;28;20033;-79
2023/01/29 01:30:44;;;;;;;101.75;42.53;;;;;;;;;;1044718;28;20029;-79
2023/01/29 01:31:15;;;;;;;102.85;44.08;;;;;;;;;;1044324;28;20504;-79
2023/01/29 01:31:45;;;;;;;99.63;45.10;;;;;;;;;;1044178;28;20052;-79
2023/01/29 01:32:16;;;;;;;89.97;42.42;;;;;;;;;;1044215;28;20114;-79
2023/01/29 01:32:46;;;;;;;112.40;46.45;;;;;;;;;;1044505;28;20092;-79
2023/01/29 01:33:17;;;;;;;108.15;45.88;;;;;;;;;;1044358;28;20543;-78
2023/01/29 01:33:47;;;;;;;110.22;46.67;;;;;;;;;;1044534;28;20095;-78
2023/01/29 01:34:18;;;;;;;102.38;45.75;;;;;;;;;;1049039;28;20067;-78
2023/01/29 01:34:50;;;;;;;121.57;49.35;;;;;;;;;;1048866;28;20023;-78
2023/01/29 01:35:21;;;;;;;132.25;55.30;;;;;;;;;;1044256;28;20572;-78
2023/01/29 01:35:51;;;;;;;165.20;75.05;;;;;;;;;;1044803;28;20023;-78
2023/01/29 01:36:22;;;;;;;136.80;57.88;;;;;;;;;;1044324;28;20021;-78
2023/01/29 01:36:54;;;;;;;123.65;54.00;;;;;;;;;;1044265;28;20489;-78
2023/01/29 01:37:25;;;;;;;128.55;54.60;;;;;;;;;;1044373;28;20400;-78
2023/01/29 01:37:55;;;;;;;112.03;52.65;;;;;;;;;;1044044;28;20099;-78
2023/01/29 01:38:26;;;;;;;114.78;52.00;;;;;;;;;;1048654;28;20543;-78
2023/01/29 01:38:57;;;;;;;119.68;49.58;;;;;;;;;;1048924;28;20035;-78
2023/01/29 01:39:27;;;;;;;108.55;45.42;;;;;;;;;;1048803;28;20028;-78
2023/01/29 01:39:58;;;;;;;115.70;47.60;;;;;;;;;;1044360;28;20017;-78
2023/01/29 01:40:29;;;;;;;98.18;47.03;;;;;;;;;;1044419;28;20507;-78
2023/01/29 01:40:59;;;;;;;111.60;45.17;;;;;;;;;;1045109;28;20446;-78
2023/01/29 01:41:30;;;;;;;112.65;50.10;;;;;;;;;;1044509;28;20499;-78
2023/01/29 01:42:00;;;;;;;106.25;47.63;;;;;;;;;;1044130;28;20392;-78
2023/01/29 01:42:31;;;;;;;118.63;51.00;;;;;;;;;;1040074;28;20464;-78
2023/01/29 01:43:01;;;;;;;115.57;47.15;;;;;;;;;;1040383;28;20029;-78
2023/01/29 01:44:01;;;;;;;115.25;49.75;;;;;;;;;;1040093;28;20036;-78
2023/01/29 01:44:52;;;;;;;100.05;44.20;;;;;;;;;;1031486;28;20073;-79
2023/01/29 01:45:30;;;;;;;119.15;47.05;;;;;;;;;;1047025;28;20082;-79
2023/01/29 01:46:00;;;;;;;108.93;46.33;;;;;;;;;;1044541;28;20627;-79
2023/01/29 01:46:32;;;;;;;119.30;49.15;;;;;;;;;;1044155;28;20028;-79
2023/01/29 01:47:03;;;;;;;121.93;49.95;;;;;;;;;;1044516;28;20029;-78
2023/01/29 01:47:39;;;;;;;122.22;49.38;;;;;;;;;;1044513;28;20512;-79
2023/01/29 01:48:16;;;;;;;109.90;50.63;;;;;;;;;;1047740;28;20028;-79
2023/01/29 01:48:50;;;;;;;111.18;48.03;;;;;;;;;;1048074;28;20025;-79
2023/01/29 01:49:21;;;;;;;102.35;46.35;;;;;;;;;;1043938;28;20021;-79
2023/01/29 01:49:51;;;;;;;107.28;47.15;;;;;;;;;;1044163;28;20115;-79
2023/01/29 01:50:28;;;;;;;116.70;47.33;;;;;;;;;;1044193;28;20016;-79
2023/01/29 01:51:02;;;;;;;108.45;48.17;;;;;;;;;;1044776;28;20074;-79
2023/01/29 01:51:34;;;;;;;115.13;50.03;;;;;;;;;;1044066;28;20395;-79
2023/01/29 01:52:05;;;;;;;119.18;47.58;;;;;;;;;;1043893;28;20021;-79
2023/01/29 01:52:39;;;;;;;110.75;50.53;;;;;;;;;;1043966;28;20435;-78
2023/01/29 01:53:14;;;;;;;114.32;49.22;;;;;;;;;;1043967;28;20061;-79
2023/01/29 01:53:51;;;;;;;120.10;49.50;;;;;;;;;;1043537;28;20060;-79
2023/01/29 01:54:27;;;;;;;110.75;50.40;;;;;;;;;;1041053;28;20013;-79
2023/01/29 01:54:58;;;;;;;108.80;48.05;;;;;;;;;;1044180;28;20036;-79
2023/01/29 01:55:31;;;;;;;104.47;47.40;;;;;;;;;;1044088;28;20591;-79
2023/01/29 01:56:03;;;;;;;107.93;44.85;;;;;;;;;;1043806;28;20020;-79
2023/01/29 01:56:39;;;;;;;99.15;47.47;;;;;;;;;;1045834;28;20025;-79
2023/01/29 01:57:15;;;;;;;102.35;46.38;;;;;;;;;;1041430;28;20059;-79
2023/01/29 01:57:46;;;;;;;97.18;43.05;;;;;;;;;;1038276;28;20034;-79
2023/01/29 01:58:22;;;;;;;95.57;45.60;;;;;;;;;;1040203;28;20029;-78
2023/01/29 01:58:55;;;;;;;97.40;46.17;;;;;;;;;;1041704;28;20084;-78
2023/01/29 01:59:26;;;;;;;105.00;47.72;;;;;;;;;;1045759;28;20015;-78
2023/01/29 02:00:10;;;;;;;107.15;52.40;;;;;;;;;;1048762;28;20395;-78
2023/01/29 02:00:40;;;;;;;103.18;47.38;;;;;;;;;;1044754;28;20017;-78
2023/01/29 02:01:12;;;;;;;98.35;40.83;;;;;;;;;;1044660;28;20021;-78
2023/01/29 02:01:46;;;;;;;93.88;42.40;;;;;;;;;;1044328;28;20017;-78
2023/01/29 02:09:57;;;;;;;85.00;40.90;;;;;;;;;;1048142;28;20472;-79
2023/01/29 02:10:29;;;;;;;95.38;42.03;;;;;;;;;;1044098;28;20103;-79
2023/01/29 02:11:00;;;;;;;93.82;41.55;;;;;;;;;;1044939;28;20024;-78
2023/01/29 02:11:30;;;;;;;94.18;43.55;;;;;;;;;;1044010;28;20187;-78
2023/01/29 02:12:03;;;;;;;85.25;38.58;;;;;;;;;;1044272;28;20066;-78
2023/01/29 02:12:35;;;;;;;91.28;39.70;;;;;;;;;;1044130;28;20029;-78
2023/01/29 02:13:06;;;;;;;88.18;39.70;;;;;;;;;;1044032;28;20524;-78
2023/01/29 02:13:37;;;;;;;88.90;39.95;;;;;;;;;;1044199;28;20119;-78
2023/01/29 02:14:08;;;;;;;101.28;41.67;;;;;;;;;;1040061;28;20021;-78
2023/01/29 02:14:39;;;;;;;81.57;37.85;;;;;;;;;;1040229;28;20026;-78
2023/01/29 02:15:09;;;;;;;86.70;36.72;;;;;;;;;;1044183;28;20380;-78
2023/01/29 02:15:45;;;;;;;97.55;40.28;;;;;;;;;;1044412;28;20056;-78
2023/01/29 02:16:15;;;;;;;99.25;38.83;;;;;;;;;;1048692;28;20082;-78
2023/01/29 02:16:46;;;;;;;110.45;46.72;;;;;;;;;;1048735;28;20555;-78
2023/01/29 02:17:18;;;;;;;103.93;44.65;;;;;;;;;;1044149;28;20025;-78
2023/01/29 02:17:49;;;;;;;104.93;44.85;;;;;;;;;;1044360;28;20492;-79
2023/01/29 02:18:20;;;;;;;70.43;37.13;;;;;;;;;;1044066;28;20031;-78
2023/01/29 02:18:51;;;;;;;76.32;38.22;;;;;;;;;;1044209;28;20448;-79
2023/01/29 02:19:42;;;;;;;75.53;37.80;;;;;;;;;;1044121;28;20072;-78
2023/01/29 02:20:19;;;;;;;89.38;36.67;;;;;;;;;;1046624;28;20036;-79
2023/01/29 02:21:06;;;;;;;90.57;40.95;;;;;;;;;;1043768;28;20123;-79
2023/01/29 02:21:37;;;;;;;99.30;40.00;;;;;;;;;;1044176;28;20028;-79
2023/01/29 02:22:34;;;;;;;77.60;37.67;;;;;;;;;;1043853;28;20021;-79
2023/01/29 02:23:10;;;;;;;77.82;35.58;;;;;;;;;;1031610;28;20034;-79
2023/01/29 02:23:49;;;;;;;78.97;36.38;;;;;;;;;;1031797;28;20026;-79
2023/01/29 02:24:20;;;;;;;78.68;36.25;;;;;;;;;;1039666;28;20033;-79
2023/01/29 02:25:08;;;;;;;72.10;36.08;;;;;;;;;;1040836;28;20109;-79
2023/01/29 02:25:57;;;;;;;85.93;39.45;;;;;;;;;;1043081;28;20024;-79
2023/01/29 02:26:40;;;;;;;111.75;49.58;;;;;;;;;;1043912;28;20033;-78
2023/01/29 02:27:13;;;;;;;135.48;62.10;;;;;;;;;;1044205;28;20452;-78
2023/01/29 02:27:44;;;;;;;133.82;59.85;;;;;;;;;;1044456;28;20173;-78
2023/01/29 02:28:33;;;;;;;114.25;51.70;;;;;;;;;;1044217;28;20100;-78
2023/01/29 02:29:24;;;;;;;157.63;61.17;;;;;;;;;;1044141;28;20020;-79
2023/01/29 02:30:00;;;;;;;142.02;56.28;;;;;;;;;;1039746;28;20034;-79
2023/01/29 02:30:40;;;;;;;107.28;46.72;;;;;;;;;;1037442;28;20389;-79
2023/01/29 02:31:29;;;;;;;80.15;35.80;;;;;;;;;;1041481;28;20497;-78
2023/01/29 02:32:05;;;;;;;78.35;38.83;;;;;;;;;;1039676;28;20021;-78
2023/01/29 02:32:39;;;;;;;78.43;33.47;;;;;;;;;;1044019;28;20374;-78
2023/01/29 02:33:12;;;;;;;63.08;31.77;;;;;;;;;;1043429;28;20074;-78
2023/01/29 02:33:57;;;;;;;74.53;35.65;;;;;;;;;;1045924;28;20024;-78
2023/01/29 02:35:30;;;;;;;86.93;37.17;;;;;;;;;;1043573;28;20021;-78
2023/01/29 02:36:13;;;;;;;91.70;39.00;;;;;;;;;;1044153;28;20027;-78
2023/01/29 02:36:46;;;;;;;101.18;44.47;;;;;;;;;;1043649;28;20013;-79
2023/01/29 02:37:17;;;;;;;96.22;44.90;;;;;;;;;;1039375;28;20512;-79
2023/01/29 02:37:53;;;;;;;97.22;45.40;;;;;;;;;;1035591;28;20022;-79
2023/01/29 02:38:35;;;;;;;103.07;44.13;;;;;;;;;;1036183;28;20060;-79
2023/01/29 02:39:08;;;;;;;89.53;40.90;;;;;;;;;;1038350;28;20030;-79
2023/01/29 02:39:43;;;;;;;88.93;44.72;;;;;;;;;;1041849;28;20385;-78
2023/01/29 02:40:24;;;;;;;91.72;42.97;;;;;;;;;;1044101;28;20029;-79
2023/01/29 02:41:02;;;;;;;114.38;49.97;;;;;;;;;;1041749;28;20039;-79
2023/01/29 02:41:43;;;;;;;113.40;49.85;;;;;;;;;;1043675;28;20059;-80
2023/01/29 02:42:23;;;;;;;115.72;52.30;;;;;;;;;;1043795;28;20035;-79
2023/01/29 02:42:53;;;;;;;;;;;;;;;;;;1044498;28;20499;-79
2023/01/29 02:43:36;;;;;;;106.60;51.25;;;;;;;;;;1046958;28;19919;-79
2023/01/29 02:44:12;;;;;;;105.15;47.67;;;;;;;;;;1045670;28;20020;-78
2023/01/29 02:44:42;;;;;;;91.38;45.38;;;;;;;;;;1044357;28;20029;-79
2023/01/29 02:45:18;;;;;;;107.32;46.70;;;;;;;;;;1040710;28;20116;-79
2023/01/29 02:45:51;;;;;;;94.03;44.22;;;;;;;;;;1042375;28;20022;-79
2023/01/29 02:46:36;;;;;;;106.80;46.40;;;;;;;;;;1045304;28;20028;-78
2023/01/29 02:47:16;;;;;;;98.97;41.25;;;;;;;;;;1046394;28;20020;-78
2023/01/29 02:47:57;;;;;;;105.68;41.92;;;;;;;;;;1048450;28;20020;-78
2023/01/29 02:48:34;;;;;;;94.03;41.95;;;;;;;;;;1048152;28;20024;-79
2023/01/29 02:49:10;;;;;;;87.05;38.10;;;;;;;;;;1048433;28;20020;-79
2023/01/29 02:49:55;;;;;;;85.13;40.60;;;;;;;;;;1048514;28;20016;-78
2023/01/29 02:50:42;;;;;;;88.03;37.42;;;;;;;;;;1047959;28;20024;-78
2023/01/29 02:51:35;;;;;;;84.18;36.80;;;;;;;;;;1044435;28;20017;-78
2023/01/29 02:52:10;;;;;;;86.28;37.88;;;;;;;;;;1043920;28;20390;-78
2023/01/29 02:52:49;;;;;;;102.35;41.58;;;;;;;;;;1043601;28;20409;-78
2023/01/29 02:53:26;;;;;;;91.55;42.75;;;;;;;;;;1043720;28;20012;-78
2023/01/29 02:54:05;;;;;;;111.28;48.47;;;;;;;;;;1043639;28;20063;-77
2023/01/29 02:54:42;;;;;;;95.68;44.88;;;;;;;;;;1043996;28;20048;-78
2023/01/29 02:55:16;;;;;;;90.70;37.88;;;;;;;;;;1044301;28;20032;-78
2023/01/29 02:55:59;;;;;;;68.90;33.65;;;;;;;;;;1046728;28;20035;-78
2023/01/29 02:56:34;;;;;;;73.30;34.22;;;;;;;;;;1043981;28;20017;-78
2023/01/29 02:57:17;;;;;;;86.03;36.42;;;;;;;;;;1043947;28;20029;-78
2023/01/29 02:57:49;;;;;;;75.43;33.53;;;;;;;;;;1044103;28;20016;-78
2023/01/29 02:58:24;;;;;;;81.93;36.72;;;;;;;;;;1046901;28;20107;-78
2023/01/29 02:59:13;;;;;;;68.20;32.30;;;;;;;;;;1043940;28;20108;-78
2023/01/29 02:59:48;;;;;;;72.68;32.88;;;;;;;;;;1043567;28;20024;-78
2023/01/29 03:00:18;;;;;;;74.63;33.50;;;;;;;;;;1043837;28;20163;-78
2023/01/29 03:00:51;;;;;;;75.05;35.38;;;;;;;;;;1043820;28;20017;-78
2023/01/29 03:01:56;;;;;;;83.13;36.65;;;;;;;;;;1044827;28;20518;-78
2023/01/29 03:02:34;;;;;;;77.00;34.55;;;;;;;;;;1033449;28;20033;-78
2023/01/29 03:03:11;;;;;;;73.70;36.63;;;;;;;;;;1035024;28;20061;-78
2023/01/29 03:03:43;;;;;;;82.90;36.33;;;;;;;;;;1032729;28;20117;-79
2023/01/29 03:04:18;;;;;;;80.40;35.30;;;;;;;;;;1028591;28;20031;-79
2023/01/29 03:04:53;;;;;;;96.93;38.85;;;;;;;;;;1026044;28;20098;-79
2023/01/29 03:05:27;;;;;;;87.85;38.85;;;;;;;;;;1038890;28;20025;-78
2023/01/29 03:06:05;;;;;;;75.22;38.65;;;;;;;;;;1041709;28;20021;-78
2023/01/29 03:06:44;;;;;;;84.10;39.40;;;;;;;;;;1045832;28;20024;-78
2023/01/29 03:07:21;;;;;;;90.25;39.95;;;;;;;;;;1043746;28;20024;-78
2023/01/29 03:07:54;;;;;;;87.00;40.58;;;;;;;;;;1043828;28;20067;-78
2023/01/29 03:08:35;;;;;;;90.88;41.80;;;;;;;;;;1044050;28;20146;-78
2023/01/29 03:09:15;;;;;;;80.30;35.20;;;;;;;;;;1044118;28;20017;-78
2023/01/29 03:09:50;;;;;;;87.47;42.03;;;;;;;;;;1043108;28;20385;-78
2023/01/29 03:10:49;;;;;;;79.22;37.75;;;;;;;;;;1039773;28;20111;-78
2023/01/29 03:11:20;;;;;;;86.32;38.53;;;;;;;;;;1031340;28;20026;-78
2023/01/29 03:11:53;;;;;;;83.68;39.65;;;;;;;;;;1037723;28;20537;-78
2023/01/29 03:12:35;;;;;;;85.75;39.15;;;;;;;;;;1041469;28;20476;-78
2023/01/29 03:13:09;;;;;;;85.90;39.35;;;;;;;;;;1039217;28;20083;-78
2023/01/29 03:13:42;;;;;;;86.80;41.50;;;;;;;;;;1041753;28;20104;-78
2023/01/29 03:14:22;;;;;;;100.55;44.03;;;;;;;;;;1039669;28;20076;-78
2023/01/29 03:15:13;;;;;;;115.60;50.13;;;;;;;;;;1041878;28;20088;-79
2023/01/29 03:15:47;;;;;;;117.63;51.38;;;;;;;;;;1043653;28;20021;-78
2023/01/29 03:16:18;;;;;;;126.22;53.53;;;;;;;;;;1044647;28;20036;-78
2023/01/29 03:16:52;;;;;;;123.07;51.72;;;;;;;;;;1044107;28;20571;-78
2023/01/29 03:17:25;;;;;;;123.47;51.85;;;;;;;;;;1042825;28;20036;-79
2023/01/29 03:18:02;;;;;;;115.68;51.35;;;;;;;;;;1039675;28;20013;-79
2023/01/29 03:18:39;;;;;;;107.78;44.90;;;;;;;;;;1039235;28;20030;-79
2023/01/29 03:19:33;;;;;;;94.63;42.00;;;;;;;;;;1041742;28;20037;-79
2023/01/29 03:20:06;;;;;;;71.07;33.75;;;;;;;;;;1043864;28;20024;-79
2023/01/29 03:20:40;;;;;;;110.75;42.70;;;;;;;;;;1043760;28;20469;-78
2023/01/29 03:22:10;;;;;;;103.22;45.13;;;;;;;;;;1043793;28;20025;-78
2023/01/29 03:22:42;;;;;;;125.97;54.88;;;;;;;;;;1043981;28;20025;-78
2023/01/29 03:23:20;;;;;;;121.47;53.80;;;;;;;;;;1048315;28;20012;-78
2023/01/29 03:32:15;;;;;;;85.93;38.10;;;;;;;;;;1048371;28;20021;-78
2023/01/29 03:32:47;;;;;;;88.43;41.72;;;;;;;;;;1048428;28;20024;-78
2023/01/29 03:33:19;;;;;;;78.72;34.95;;;;;;;;;;1043853;28;20435;-78
2023/01/29 03:33:51;;;;;;;78.85;35.08;;;;;;;;;;1043459;28;20037;-78
2023/01/29 03:34:27;;;;;;;78.05;33.85;;;;;;;;;;1043938;28;20365;-78
2023/01/29 03:35:00;;;;;;;72.72;34.92;;;;;;;;;;1045257;28;20551;-78
2023/01/29 03:35:35;;;;;;;68.07;35.58;;;;;;;;;;1048221;28;20059;-78
2023/01/29 03:36:09;;;;;;;77.10;33.63;;;;;;;;;;1048269;28;20066;-78
2023/01/29 03:36:44;;;;;;;66.88;30.88;;;;;;;;;;1048508;28;20030;-79
2023/01/29 03:37:33;;;;;;;65.18;30.45;;;;;;;;;;1043514;28;20500;-79
2023/01/29 03:38:06;;;;;;;62.92;31.40;;;;;;;;;;1043757;28;20021;-79
2023/01/29 03:38:36;;;;;;;68.50;32.88;;;;;;;;;;1043671;28;20480;-79
2023/01/29 03:39:10;;;;;;;67.30;30.33;;;;;;;;;;1046186;28;20032;-79
2023/01/29 03:39:40;;;;;;;63.10;29.42;;;;;;;;;;1043675;28;20023;-79
2023/01/29 03:40:12;;;;;;;62.63;30.00;;;;;;;;;;1043837;28;20036;-78
2023/01/29 03:40:46;;;;;;;61.55;29.60;;;;;;;;;;1043760;28;20025;-79
2023/01/29 03:41:32;;;;;;;58.65;31.45;;;;;;;;;;1043833;28;20051;-79
2023/01/29 03:42:15;;;;;;;65.18;31.20;;;;;;;;;;1043678;28;20476;-78
2023/01/29 03:42:51;;;;;;;72.55;29.25;;;;;;;;;;1039821;28;20013;-78